Time;durP1;ratioP1;P1;durP2;ratioP2;P2;SDS_P1;SDS_P2;PMS_P1;PMS_P2;Temp;Humidity;BMP_temperature;BMP_pressure;BME280_temperature;BME280_humidity;BME280_pressure;Samples;Min_cycle;Max_cycle;Signal;HPM_P1;HPM_P2
2023/01/30 00:01:05;;;;;;;;;;;23.80;99.90;;;;;;5030630;28;20023;-73
2023/01/30 00:03:33;;;;;;;;;;;23.80;99.90;;;;;;5030386;28;19916;-72
2023/01/30 00:06:33;;;;;;;;;;;23.70;99.90;;;;;;5031089;28;20946;-75
2023/01/30 00:09:00;;;;;;;;;;;23.60;99.90;;;;;;5042361;28;19913;-73
2023/01/30 00:11:28;;;;;;;;;;;23.50;99.90;;;;;;5031056;28;19912;-73
2023/01/30 00:13:55;;;;;;;;;;;23.50;99.90;;;;;;5031087;28;19998;-74
2023/01/30 00:16:22;;;;;;;;;;;23.40;99.90;;;;;;5032033;28;19913;-72
2023/01/30 00:18:49;;;;;;;;;;;23.40;99.90;;;;;;5031393;28;19916;-72
2023/01/30 00:21:16;;;;;;;;;;;23.50;99.90;;;;;;5031012;28;19913;-71
2023/01/30 00:23:43;;;;;;;;;;;23.50;99.90;;;;;;5032869;28;19916;-72
2023/01/30 00:26:10;;;;;;;;;;;23.50;99.90;;;;;;5030287;28;19916;-73
2023/01/30 00:28:38;;;;;;;;;;;23.50;99.90;;;;;;5030418;28;19956;-73
2023/01/30 00:31:05;;;;;;;;;;;23.60;99.90;;;;;;5030509;28;19913;-70
2023/01/30 00:33:32;;;;;;;;;;;23.70;99.90;;;;;;5029650;28;19955;-71
2023/01/30 00:36:00;;;;;;;;;;;23.90;99.90;;;;;;5028810;28;19935;-72
2023/01/30 00:38:27;;;;;;;;;;;24.00;99.90;;;;;;5029960;28;19917;-72
2023/01/30 00:40:54;;;;;;;;;;;24.20;99.90;;;;;;5028669;28;20338;-70
2023/01/30 00:49:13;;;;;;;;;;;24.30;99.90;;;;;;5030636;28;19967;-72
2023/01/30 00:51:40;;;;;;;;;;;24.50;99.90;;;;;;5030425;28;19916;-73
2023/01/30 00:54:06;;;;;;;;;;;24.60;99.90;;;;;;5031477;28;19921;-73
2023/01/30 00:56:33;;;;;;;;;;;24.70;99.90;;;;;;5031080;28;19928;-73
2023/01/30 00:59:00;;;;;;;;;;;24.80;99.90;;;;;;5032331;28;19925;-72
2023/01/30 01:01:26;;;;;;;;;;;24.90;99.90;;;;;;5032502;28;19924;-72
2023/01/30 01:03:53;;;;;;;;;;;25.00;99.90;;;;;;5030688;28;19912;-73
2023/01/30 01:06:20;;;;;;;;;;;25.30;99.90;;;;;;5031342;28;19913;-73
2023/01/30 01:08:47;;;;;;;;;;;26.00;99.90;;;;;;5040724;28;19917;-73
2023/01/30 01:11:23;;;;;;;;;;;26.70;99.90;;;;;;5027050;28;20393;-72
2023/01/30 01:13:53;;;;;;;;;;;27.40;99.90;;;;;;5030009;28;19916;-72
2023/01/30 01:16:20;;;;;;;;;;;27.60;99.90;;;;;;5030659;28;19916;-71
2023/01/30 01:18:47;;;;;;;;;;;27.70;99.90;;;;;;5029995;28;19956;-73
2023/01/30 01:21:14;;;;;;;;;;;27.80;99.90;;;;;;5030099;28;19928;-73
2023/01/30 01:23:40;;;;;;;;;;;27.90;99.90;;;;;;5030831;28;19917;-74
2023/01/30 01:26:07;;;;;;;;;;;28.30;99.90;;;;;;5031078;28;20666;-73
2023/01/30 01:28:34;;;;;;;;;;;28.50;99.90;;;;;;5034132;28;20011;-73
2023/01/30 01:31:00;;;;;;;;;;;28.60;99.90;;;;;;5033743;28;19987;-73
2023/01/30 01:33:27;;;;;;;;;;;28.60;99.90;;;;;;5034819;28;21305;-74
2023/01/30 01:35:57;;;;;;;;;;;28.80;99.90;;;;;;5033845;28;20008;-73
2023/01/30 01:38:24;;;;;;;;;;;29.10;99.90;;;;;;5034493;28;19913;-73
2023/01/30 01:41:04;;;;;;;;;;;29.30;99.90;;;;;;5034316;28;19921;-75
2023/01/30 01:43:32;;;;;;;;;;;29.50;99.90;;;;;;5035807;28;20387;-73
2023/01/30 01:46:06;;;;;;;;;;;29.60;99.90;;;;;;5034002;28;19916;-73
2023/01/30 01:48:35;;;;;;;;;;;29.70;99.90;;;;;;5035864;28;20461;-74
2023/01/30 01:51:03;;;;;;;;;;;29.90;99.90;;;;;;5032969;28;21593;-74
2023/01/30 01:53:33;;;;;;;;;;;29.80;99.90;;;;;;5037531;28;19935;-73
2023/01/30 01:56:02;;;;;;;;;;;29.90;99.90;;;;;;5032478;28;19912;-73
2023/01/30 01:58:30;;;;;;;;;;;30.00;99.90;;;;;;5033219;28;19921;-73
2023/01/30 02:00:58;;;;;;;;;;;30.00;99.90;;;;;;5033372;28;19982;-73
2023/01/30 02:03:25;;;;;;;;;;;30.00;99.90;;;;;;5031493;28;19920;-73
2023/01/30 02:05:55;;;;;;;;;;;29.80;99.90;;;;;;5033108;28;20481;-73
2023/01/30 02:08:41;;;;;;;;;;;29.60;99.90;;;;;;5033360;28;19916;-72
2023/01/30 02:11:37;;;;;;;;;;;29.40;99.90;;;;;;5021037;28;19916;-73
2023/01/30 02:14:05;;;;;;;;;;;29.20;99.90;;;;;;5029617;28;20461;-73
2023/01/30 02:16:32;;;;;;;;;;;29.20;99.90;;;;;;5032722;28;19957;-73
2023/01/30 02:18:58;;;;;;;;;;;29.10;99.90;;;;;;5032630;28;19916;-73
2023/01/30 02:21:54;;;;;;;;;;;29.00;99.90;;;;;;5033267;28;19917;-73
2023/01/30 02:24:33;;;;;;;;;;;28.90;99.90;;;;;;4988713;28;19968;-72
2023/01/30 02:27:09;;;;;;;;;;;29.00;99.90;;;;;;5033691;28;20270;-72
2023/01/30 02:29:41;;;;;;;;;;;29.00;99.90;;;;;;5034224;28;19920;-74
2023/01/30 02:32:08;;;;;;;;;;;29.10;99.90;;;;;;5032354;28;19924;-74
2023/01/30 02:34:41;;;;;;;;;;;29.30;99.90;;;;;;5033132;28;19927;-73
2023/01/30 02:37:17;;;;;;;;;;;29.40;99.90;;;;;;5033310;28;19943;-73
2023/01/30 02:39:43;;;;;;;;;;;29.90;99.90;;;;;;5032250;28;20889;-73
2023/01/30 02:42:19;;;;;;;;;;;30.20;99.90;;;;;;5032031;28;19912;-73
2023/01/30 02:44:52;;;;;;;;;;;30.40;99.90;;;;;;5035085;28;19999;-72
2023/01/30 02:47:27;;;;;;;;;;;30.30;99.90;;;;;;5032291;28;19909;-74
2023/01/30 02:49:59;;;;;;;;;;;30.20;99.90;;;;;;5032313;28;19917;-74
2023/01/30 02:52:27;;;;;;;;;;;30.20;99.90;;;;;;5033964;28;19916;-73
2023/01/30 02:54:53;;;;;;;;;;;30.20;99.90;;;;;;5032479;28;19912;-73
2023/01/30 02:57:21;;;;;;;;;;;30.10;99.90;;;;;;5034995;28;20338;-73
2023/01/30 02:59:50;;;;;;;;;;;30.00;99.90;;;;;;5032061;28;19921;-73
2023/01/30 03:02:23;;;;;;;;;;;29.90;99.90;;;;;;5032205;28;20278;-73
2023/01/30 03:04:49;;;;;;;;;;;29.70;99.90;;;;;;5032845;28;19909;-73
2023/01/30 03:07:21;;;;;;;;;;;29.60;99.90;;;;;;5035029;28;20010;-73
2023/01/30 03:09:48;;;;;;;;;;;29.40;99.90;;;;;;5042224;28;19915;-74
2023/01/30 03:12:17;;;;;;;;;;;29.40;99.90;;;;;;5031321;28;19919;-73
2023/01/30 03:14:53;;;;;;;;;;;29.50;99.90;;;;;;5030594;28;19917;-70
2023/01/30 03:17:23;;;;;;;;;;;29.50;99.90;;;;;;5033172;28;19917;-73
2023/01/30 03:19:50;;;;;;;;;;;29.60;99.90;;;;;;5032097;28;19921;-71
2023/01/30 03:22:17;;;;;;;;;;;29.90;99.90;;;;;;5032477;28;19916;-73
2023/01/30 03:24:44;;;;;;;;;;;30.10;99.90;;;;;;5031910;28;19920;-73
2023/01/30 03:27:11;;;;;;;;;;;30.00;99.90;;;;;;5032989;28;19994;-71
2023/01/30 03:29:38;;;;;;;;;;;29.80;99.90;;;;;;5034363;28;20438;-71
2023/01/30 03:32:05;;;;;;;;;;;29.60;99.90;;;;;;5031043;28;19916;-71
2023/01/30 03:34:32;;;;;;;;;;;29.40;99.90;;;;;;5033239;28;19924;-72
2023/01/30 03:36:59;;;;;;;;;;;29.20;99.90;;;;;;5032008;28;20424;-73
2023/01/30 03:39:26;;;;;;;;;;;28.90;99.90;;;;;;5033274;28;19920;-72
2023/01/30 03:41:53;;;;;;;;;;;28.90;99.90;;;;;;5031221;28;19919;-72
2023/01/30 03:44:19;;;;;;;;;;;28.70;99.90;;;;;;5031411;28;19917;-72
2023/01/30 03:46:46;;;;;;;;;;;28.60;99.90;;;;;;5046476;28;20477;-72
2023/01/30 03:49:13;;;;;;;;;;;28.40;99.90;;;;;;5032974;28;20667;-72
2023/01/30 03:51:39;;;;;;;;;;;28.30;99.90;;;;;;5031667;28;20026;-74
2023/01/30 03:54:06;;;;;;;;;;;28.30;99.90;;;;;;5032404;28;19924;-72
2023/01/30 03:56:33;;;;;;;;;;;28.10;99.90;;;;;;5031189;28;19916;-71
2023/01/30 03:58:59;;;;;;;;;;;28.00;99.90;;;;;;5031998;28;19917;-72
2023/01/30 04:01:26;;;;;;;;;;;27.80;99.90;;;;;;5050348;28;19912;-71
2023/01/30 04:03:53;;;;;;;;;;;27.80;99.90;;;;;;5054804;28;19915;-73
2023/01/30 04:06:19;;;;;;;;;;;27.70;99.90;;;;;;5059830;28;20377;-73
2023/01/30 04:08:46;;;;;;;;;;;27.60;99.90;;;;;;5054238;28;20339;-71
2023/01/30 04:11:13;;;;;;;;;;;27.60;99.90;;;;;;5054394;28;19935;-72
2023/01/30 04:13:39;;;;;;;;;;;27.60;99.90;;;;;;5060015;28;20354;-72
2023/01/30 04:16:17;;;;;;;;;;;27.70;99.90;;;;;;5040890;28;19935;-72
2023/01/30 04:18:44;;;;;;;;;;;27.80;99.90;;;;;;5029338;28;19944;-72
2023/01/30 04:21:11;;;;;;;;;;;27.80;99.90;;;;;;5030251;28;20468;-75
2023/01/30 04:23:38;;;;;;;;;;;27.80;99.90;;;;;;5032326;28;19917;-72
2023/01/30 04:26:05;;;;;;;;;;;27.80;99.90;;;;;;5031654;28;19917;-74
2023/01/30 04:28:31;;;;;;;;;;;27.80;99.90;;;;;;5031871;28;20339;-73
2023/01/30 04:30:58;;;;;;;;;;;27.80;99.90;;;;;;5031451;28;20358;-74
2023/01/30 04:33:25;;;;;;;;;;;27.70;99.90;;;;;;5031928;28;19990;-74
2023/01/30 04:35:57;;;;;;;;;;;27.70;99.90;;;;;;5031928;28;19931;-73
2023/01/30 04:38:24;;;;;;;;;;;27.70;99.90;;;;;;5030817;28;20012;-74
2023/01/30 04:40:52;;;;;;;;;;;27.60;99.90;;;;;;5030367;28;19924;-72
2023/01/30 04:43:20;;;;;;;;;;;27.60;99.90;;;;;;5032684;28;20371;-72
2023/01/30 04:45:48;;;;;;;;;;;27.60;99.90;;;;;;5030507;28;19920;-71
2023/01/30 04:48:16;;;;;;;;;;;27.60;99.90;;;;;;5030946;28;19939;-71
2023/01/30 04:50:43;;;;;;;;;;;27.50;99.90;;;;;;5030450;28;20361;-71
2023/01/30 04:53:10;;;;;;;;;;;27.50;99.90;;;;;;5031269;28;19943;-71
2023/01/30 04:55:38;;;;;;;;;;;27.40;99.90;;;;;;5030636;28;19916;-70
2023/01/30 04:58:04;;;;;;;;;;;27.20;99.90;;;;;;5032259;28;19988;-71
2023/01/30 05:00:31;;;;;;;;;;;27.20;99.90;;;;;;5028814;28;20004;-72
2023/01/30 05:03:05;;;;;;;;;;;27.20;99.90;;;;;;5031655;28;19919;-73
2023/01/30 05:05:33;;;;;;;;;;;27.20;99.90;;;;;;5033881;28;20338;-73
2023/01/30 05:08:00;;;;;;;;;;;27.20;99.90;;;;;;5033327;28;20058;-73
2023/01/30 05:10:27;;;;;;;;;;;27.20;99.90;;;;;;5035312;28;20383;-73
2023/01/30 05:12:54;;;;;;;;;;;27.00;99.90;;;;;;5041332;28;20011;-71
2023/01/30 05:15:23;;;;;;;;;;;26.90;99.90;;;;;;5035205;28;19908;-74
2023/01/30 05:17:50;;;;;;;;;;;26.80;99.90;;;;;;5034899;28;19920;-72
2023/01/30 05:20:17;;;;;;;;;;;26.70;99.90;;;;;;5031417;28;21459;-72
2023/01/30 05:22:43;;;;;;;;;;;26.70;99.90;;;;;;5031189;28;19909;-73
2023/01/30 05:25:10;;;;;;;;;;;26.70;99.90;;;;;;5034528;28;19924;-72
2023/01/30 05:27:37;;;;;;;;;;;26.50;99.90;;;;;;5034032;28;19956;-70
2023/01/30 05:30:04;;;;;;;;;;;26.50;99.90;;;;;;5033683;28;20371;-72
2023/01/30 05:32:31;;;;;;;;;;;26.50;99.90;;;;;;5033757;28;20371;-71
2023/01/30 05:34:58;;;;;;;;;;;26.50;99.90;;;;;;5032901;28;20234;-70
2023/01/30 05:37:25;;;;;;;;;;;26.60;99.90;;;;;;5034589;28;20259;-73
2023/01/30 05:39:52;;;;;;;;;;;26.50;99.90;;;;;;5032835;28;19921;-71
2023/01/30 05:42:18;;;;;;;;;;;26.50;99.90;;;;;;5035024;28;19917;-72
2023/01/30 05:44:48;;;;;;;;;;;26.50;99.90;;;;;;5033995;28;19960;-71
2023/01/30 05:47:15;;;;;;;;;;;26.50;99.90;;;;;;5033799;28;21900;-73
2023/01/30 05:49:42;;;;;;;;;;;26.30;99.90;;;;;;5036616;28;19913;-71
2023/01/30 05:52:08;;;;;;;;;;;26.10;99.90;;;;;;5034993;28;20359;-71
2023/01/30 05:54:35;;;;;;;;;;;26.10;99.90;;;;;;5032730;28;20734;-71
2023/01/30 05:57:02;;;;;;;;;;;26.10;99.90;;;;;;5031100;28;19908;-72
2023/01/30 05:59:29;;;;;;;;;;;26.10;99.90;;;;;;5026673;28;19921;-72
2023/01/30 06:01:56;;;;;;;;;;;26.20;99.90;;;;;;5027640;28;19921;-70
2023/01/30 06:04:22;;;;;;;;;;;26.30;99.90;;;;;;5029191;28;19913;-71
2023/01/30 06:06:49;;;;;;;;;;;26.40;99.90;;;;;;5026053;28;20619;-71
2023/01/30 06:09:16;;;;;;;;;;;26.30;99.90;;;;;;5026285;28;20131;-71
2023/01/30 06:11:43;;;;;;;;;;;26.30;99.90;;;;;;5027291;28;19916;-72
2023/01/30 06:14:09;;;;;;;;;;;26.20;99.90;;;;;;5032269;28;20448;-71
2023/01/30 06:16:36;;;;;;;;;;;26.10;99.90;;;;;;5028143;28;20709;-71
2023/01/30 06:19:03;;;;;;;;;;;26.00;99.90;;;;;;5028571;28;19928;-71
2023/01/30 06:21:30;;;;;;;;;;;25.80;99.90;;;;;;5024643;28;19916;-71
2023/01/30 06:23:57;;;;;;;;;;;25.70;99.90;;;;;;5026281;28;19951;-72
2023/01/30 06:26:24;;;;;;;;;;;25.50;99.90;;;;;;5026508;28;20285;-70
2023/01/30 06:28:50;;;;;;;;;;;25.20;99.90;;;;;;5025882;28;19995;-72
2023/01/30 06:31:17;;;;;;;;;;;25.10;99.90;;;;;;5025787;28;19970;-73
2023/01/30 06:33:44;;;;;;;;;;;25.00;99.90;;;;;;5025583;28;19958;-69
2023/01/30 06:36:11;;;;;;;;;;;24.90;99.90;;;;;;5025827;28;19920;-72
2023/01/30 06:38:38;;;;;;;;;;;24.80;99.90;;;;;;5024578;28;19919;-70
2023/01/30 06:41:05;;;;;;;;;;;24.70;99.90;;;;;;5024277;28;19925;-72
2023/01/30 06:43:31;;;;;;;;;;;24.50;99.90;;;;;;5030723;28;19916;-73
2023/01/30 06:45:58;;;;;;;;;;;24.30;99.90;;;;;;5030098;28;19917;-71
2023/01/30 06:48:25;;;;;;;;;;;24.10;99.90;;;;;;5030172;28;19913;-71
2023/01/30 06:50:52;;;;;;;;;;;24.00;99.90;;;;;;5044963;28;19916;-71
2023/01/30 06:53:19;;;;;;;;;;;23.80;99.90;;;;;;5027980;28;20040;-71
2023/01/30 06:55:46;;;;;;;;;;;23.70;99.90;;;;;;5028761;28;19920;-71
2023/01/30 06:58:13;;;;;;;;;;;23.60;99.90;;;;;;5040841;28;20365;-71
2023/01/30 07:00:41;;;;;;;;;;;23.60;99.90;;;;;;5029334;28;19927;-72
2023/01/30 07:03:11;;;;;;;;;;;23.60;99.90;;;;;;5029131;28;20051;-71
2023/01/30 07:05:39;;;;;;;;;;;23.60;99.90;;;;;;5030432;28;21442;-71
2023/01/30 07:08:06;;;;;;;;;;;23.60;99.90;;;;;;5039647;28;19912;-71
2023/01/30 07:10:34;;;;;;;;;;;23.50;99.90;;;;;;5027066;28;19913;-71
2023/01/30 07:13:01;;;;;;;;;;;23.50;99.90;;;;;;5027757;28;19912;-72
2023/01/30 07:15:28;;;;;;;;;;;23.40;99.90;;;;;;5031127;28;20936;-71
2023/01/30 07:17:54;;;;;;;;;;;23.30;99.90;;;;;;5029828;28;20573;-72
2023/01/30 07:20:21;;;;;;;;;;;23.30;99.90;;;;;;5026207;28;19925;-71
2023/01/30 07:22:54;;;;;;;;;;;23.20;99.90;;;;;;5031138;28;20554;-72
2023/01/30 07:25:22;;;;;;;;;;;23.20;99.90;;;;;;5032201;28;19923;-72
2023/01/30 07:27:53;;;;;;;;;;;23.20;99.90;;;;;;5030583;28;19916;-71
2023/01/30 07:30:20;;;;;;;;;;;23.10;99.90;;;;;;5031180;28;20841;-70
2023/01/30 07:32:53;;;;;;;;;;;23.00;99.90;;;;;;5033298;28;19923;-72
2023/01/30 07:35:21;;;;;;;;;;;23.00;99.90;;;;;;5031741;28;19920;-72
2023/01/30 07:37:48;;;;;;;;;;;23.00;99.90;;;;;;5031497;28;20418;-72
2023/01/30 07:40:15;;;;;;;;;;;22.90;99.90;;;;;;5031280;28;19932;-71
2023/01/30 07:42:42;;;;;;;;;;;22.80;99.90;;;;;;5030772;28;19913;-71
2023/01/30 07:45:09;;;;;;;;;;;22.80;99.90;;;;;;5031567;28;20278;-73
2023/01/30 07:47:36;;;;;;;;;;;22.70;99.90;;;;;;5031679;28;19919;-72
2023/01/30 07:50:03;;;;;;;;;;;22.70;99.90;;;;;;5031323;28;20389;-71
2023/01/30 07:52:30;;;;;;;;;;;22.70;99.90;;;;;;5030986;28;19920;-71
2023/01/30 07:54:57;;;;;;;;;;;22.60;99.90;;;;;;5031514;28;19916;-71
2023/01/30 07:57:23;;;;;;;;;;;22.70;99.90;;;;;;5032301;28;20259;-72
2023/01/30 07:59:53;;;;;;;;;;;22.70;99.90;;;;;;5031822;28;19970;-72
2023/01/30 08:02:20;;;;;;;;;;;22.60;99.90;;;;;;5031792;28;20006;-72
2023/01/30 08:04:47;;;;;;;;;;;22.60;99.90;;;;;;5031289;28;19916;-72
2023/01/30 08:07:13;;;;;;;;;;;22.60;99.90;;;;;;5036733;28;20379;-72
2023/01/30 08:09:40;;;;;;;;;;;22.50;99.90;;;;;;5034316;28;19916;-72
2023/01/30 08:12:07;;;;;;;;;;;22.50;99.90;;;;;;5028141;28;19917;-72
2023/01/30 08:14:34;;;;;;;;;;;22.50;99.90;;;;;;5031658;28;19912;-71
2023/01/30 08:17:01;;;;;;;;;;;22.50;99.90;;;;;;5030469;28;19999;-72
2023/01/30 08:19:27;;;;;;;;;;;22.50;99.90;;;;;;5030736;28;19990;-72
2023/01/30 08:21:54;;;;;;;;;;;22.50;99.90;;;;;;5029867;28;19920;-71
2023/01/30 08:24:21;;;;;;;;;;;22.50;99.90;;;;;;5030910;28;19917;-71
2023/01/30 08:26:48;;;;;;;;;;;22.40;99.90;;;;;;5029046;28;19912;-71
2023/01/30 08:29:15;;;;;;;;;;;22.40;99.90;;;;;;5031186;28;19995;-71
2023/01/30 08:31:41;;;;;;;;;;;22.40;99.90;;;;;;5029687;28;19940;-70
2023/01/30 08:34:08;;;;;;;;;;;22.30;99.90;;;;;;5029786;28;19994;-70
2023/01/30 08:36:35;;;;;;;;;;;22.40;99.90;;;;;;5030025;28;20548;-72
2023/01/30 08:39:02;;;;;;;;;;;22.40;99.90;;;;;;5030822;28;19970;-71
2023/01/30 08:41:28;;;;;;;;;;;22.40;99.90;;;;;;5027410;28;19939;-71
2023/01/30 08:43:55;;;;;;;;;;;22.30;99.90;;;;;;5030866;28;20031;-72
2023/01/30 08:46:22;;;;;;;;;;;22.30;99.90;;;;;;5029548;28;20016;-71
2023/01/30 08:48:49;;;;;;;;;;;22.30;99.90;;;;;;5030924;28;20535;-72
2023/01/30 08:51:15;;;;;;;;;;;22.30;99.90;;;;;;5030388;28;20003;-72
2023/01/30 08:53:42;;;;;;;;;;;22.40;99.90;;;;;;5032376;28;19909;-72
2023/01/30 08:56:09;;;;;;;;;;;22.30;99.90;;;;;;5029531;28;19970;-71
2023/01/30 08:58:35;;;;;;;;;;;22.30;99.90;;;;;;5032384;28;19918;-72
2023/01/30 09:01:05;;;;;;;;;;;22.30;99.90;;;;;;5031051;28;19921;-71
2023/01/30 09:03:32;;;;;;;;;;;22.30;99.90;;;;;;5030336;28;19920;-71
2023/01/30 09:05:59;;;;;;;;;;;22.30;99.90;;;;;;5029813;28;19928;-73
2023/01/30 09:08:26;;;;;;;;;;;22.30;99.90;;;;;;5035029;28;19912;-72
2023/01/30 09:10:56;;;;;;;;;;;22.30;99.90;;;;;;5035890;28;19912;-72
2023/01/30 09:13:23;;;;;;;;;;;22.30;99.90;;;;;;5031512;28;20443;-72
2023/01/30 09:15:49;;;;;;;;;;;22.30;99.90;;;;;;5030271;28;20414;-71
2023/01/30 09:18:16;;;;;;;;;;;22.30;99.90;;;;;;5030432;28;19963;-72
2023/01/30 09:20:43;;;;;;;;;;;22.30;99.90;;;;;;5029959;28;19952;-72
2023/01/30 09:23:10;;;;;;;;;;;22.30;99.90;;;;;;5030234;28;20244;-72
2023/01/30 09:25:36;;;;;;;;;;;22.40;99.90;;;;;;5031289;28;20425;-70
2023/01/30 09:28:03;;;;;;;;;;;22.40;99.90;;;;;;5029994;28;19959;-72
2023/01/30 09:30:30;;;;;;;;;;;22.30;99.90;;;;;;5030539;28;20315;-72
2023/01/30 09:32:57;;;;;;;;;;;22.30;99.90;;;;;;5029057;28;20355;-72
2023/01/30 09:35:23;;;;;;;;;;;22.20;99.90;;;;;;5030254;28;19921;-72
2023/01/30 09:37:51;;;;;;;;;;;22.20;99.90;;;;;;5030831;28;19912;-72
2023/01/30 09:40:19;;;;;;;;;;;22.20;99.90;;;;;;5029840;28;19925;-72
2023/01/30 09:42:46;;;;;;;;;;;22.20;99.90;;;;;;5029271;28;20275;-72
2023/01/30 09:45:32;;;;;;;;;;;22.30;99.90;;;;;;5029230;28;19924;-72
2023/01/30 09:48:06;;;;;;;;;;;22.30;99.90;;;;;;5029221;28;19960;-72
2023/01/30 09:50:42;;;;;;;;;;;22.30;99.90;;;;;;5032493;28;19927;-72
2023/01/30 09:53:32;;;;;;;;;;;22.30;99.90;;;;;;5032215;28;19944;-72
2023/01/30 09:55:59;;;;;;;;;;;22.20;99.90;;;;;;5028544;28;19926;-72
2023/01/30 09:58:41;;;;;;;;;;;22.30;99.90;;;;;;5032200;28;19912;-73
2023/01/30 10:01:11;;;;;;;;;;;22.30;99.90;;;;;;5032692;28;20017;-72
2023/01/30 10:03:49;;;;;;;;;;;22.30;99.90;;;;;;5033361;28;19920;-72
2023/01/30 10:06:16;;;;;;;;;;;22.30;99.90;;;;;;5032125;28;19916;-73
2023/01/30 10:08:49;;;;;;;;;;;22.30;99.90;;;;;;5029535;28;20556;-71
2023/01/30 10:11:32;;;;;;;;;;;22.20;99.90;;;;;;5031488;28;19920;-72
2023/01/30 10:14:25;;;;;;;;;;;22.20;99.90;;;;;;5040321;28;19913;-72
2023/01/30 10:17:10;;;;;;;;;;;22.20;99.90;;;;;;5016909;28;20015;-72
2023/01/30 10:19:54;;;;;;;;;;;22.10;99.90;;;;;;5034184;28;19935;-72
2023/01/30 10:22:35;;;;;;;;;;;22.10;99.90;;;;;;5032706;28;19962;-71
2023/01/30 10:25:01;;;;;;;;;;;22.10;99.90;;;;;;5032055;28;19916;-72
2023/01/30 10:27:29;;;;;;;;;;;22.00;99.90;;;;;;5033232;28;19932;-72
2023/01/30 10:29:58;;;;;;;;;;;22.00;99.90;;;;;;5032302;28;19920;-72
2023/01/30 10:32:30;;;;;;;;;;;22.00;99.90;;;;;;5032117;28;19972;-72
2023/01/30 10:35:05;;;;;;;;;;;22.00;99.90;;;;;;5033638;28;19940;-72
2023/01/30 10:37:35;;;;;;;;;;;22.00;99.90;;;;;;5030779;28;19962;-72
2023/01/30 10:40:33;;;;;;;;;;;21.90;99.90;;;;;;5032776;28;19925;-72
2023/01/30 10:43:03;;;;;;;;;;;21.90;99.90;;;;;;4999559;28;20684;-71
2023/01/30 10:45:42;;;;;;;;;;;21.90;99.90;;;;;;5032928;28;20417;-72
2023/01/30 10:48:11;;;;;;;;;;;21.90;99.90;;;;;;5033261;28;19956;-73
2023/01/30 10:50:46;;;;;;;;;;;21.90;99.90;;;;;;5032164;28;20043;-72
2023/01/30 10:53:13;;;;;;;;;;;21.90;99.90;;;;;;5032194;28;20438;-72
2023/01/30 10:55:39;;;;;;;;;;;21.90;99.90;;;;;;5031125;28;19916;-72
2023/01/30 10:58:44;;;;;;;;;;;21.90;99.90;;;;;;5032748;28;19940;-71
2023/01/30 11:01:21;;;;;;;;;;;21.90;99.90;;;;;;4971673;28;19988;-72
2023/01/30 11:03:55;;;;;;;;;;;21.90;99.90;;;;;;4973626;28;20403;-72
2023/01/30 11:06:22;;;;;;;;;;;21.90;99.90;;;;;;5009885;28;20002;-72
2023/01/30 11:08:49;;;;;;;;;;;21.90;99.90;;;;;;5040969;28;19916;-72
2023/01/30 11:11:26;;;;;;;;;;;22.00;99.90;;;;;;5030588;28;20374;-72
2023/01/30 11:14:11;;;;;;;;;;;22.00;99.90;;;;;;5046855;28;19919;-72
2023/01/30 11:16:57;;;;;;;;;;;22.00;99.90;;;;;;5031606;28;19917;-72
2023/01/30 11:19:33;;;;;;;;;;;21.90;99.90;;;;;;5032688;28;20290;-72
2023/01/30 11:22:02;;;;;;;;;;;21.90;99.90;;;;;;5031397;28;19919;-73
2023/01/30 11:24:37;;;;;;;;;;;22.00;99.90;;;;;;5032703;28;19920;-72
2023/01/30 11:27:18;;;;;;;;;;;21.90;99.90;;;;;;5031742;28;19919;-73
2023/01/30 11:29:45;;;;;;;;;;;21.90;99.90;;;;;;5030202;28;20363;-70
2023/01/30 11:32:15;;;;;;;;;;;22.00;99.90;;;;;;5030483;28;19927;-71
2023/01/30 11:34:42;;;;;;;;;;;22.10;99.90;;;;;;5031197;28;19943;-71
2023/01/30 11:37:14;;;;;;;;;;;22.00;99.90;;;;;;5031068;28;20907;-74
2023/01/30 11:39:47;;;;;;;;;;;22.00;99.90;;;;;;5029865;28;19927;-71
2023/01/30 11:42:14;;;;;;;;;;;22.00;99.90;;;;;;5030039;28;19975;-73
2023/01/30 11:44:41;;;;;;;;;;;22.00;99.90;;;;;;5030386;28;19967;-75
2023/01/30 11:47:25;;;;;;;;;;;22.00;99.90;;;;;;5030465;28;20386;-71
2023/01/30 11:49:55;;;;;;;;;;;21.90;99.90;;;;;;5031337;28;19917;-73
2023/01/30 11:52:25;;;;;;;;;;;21.90;99.90;;;;;;5029080;28;19917;-72
2023/01/30 11:54:52;;;;;;;;;;;21.90;99.90;;;;;;5030283;28;19916;-71
2023/01/30 11:57:20;;;;;;;;;;;21.80;99.90;;;;;;5031343;28;20050;-74
2023/01/30 11:59:56;;;;;;;;;;;21.90;99.90;;;;;;5031573;28;19921;-72
2023/01/30 12:02:31;;;;;;;;;;;21.80;99.90;;;;;;5030084;28;20004;-72
2023/01/30 12:05:06;;;;;;;;;;;21.70;99.90;;;;;;5031486;28;20850;-72
2023/01/30 12:07:34;;;;;;;;;;;21.70;99.90;;;;;;5022520;28;19909;-72
2023/01/30 12:10:01;;;;;;;;;;;21.70;99.90;;;;;;5030403;28;20080;-73
2023/01/30 12:12:32;;;;;;;;;;;21.70;99.90;;;;;;5037049;28;20340;-71
2023/01/30 12:15:12;;;;;;;;;;;21.70;99.90;;;;;;5029684;28;19917;-74
2023/01/30 12:17:45;;;;;;;;;;;21.60;99.90;;;;;;5030778;28;19923;-73
2023/01/30 12:20:17;;;;;;;;;;;21.60;99.90;;;;;;5030262;28;19967;-75
2023/01/30 12:23:02;;;;;;;;;;;21.60;99.90;;;;;;5029047;28;19916;-73
2023/01/30 12:25:34;;;;;;;;;;;21.60;99.90;;;;;;5030257;28;19917;-72
2023/01/30 12:28:18;;;;;;;;;;;21.60;99.90;;;;;;5023072;28;19987;-76
2023/01/30 12:30:50;;;;;;;;;;;21.50;99.90;;;;;;5029928;28;20026;-75
2023/01/30 12:33:18;;;;;;;;;;;21.60;99.90;;;;;;5029767;28;19924;-73
2023/01/30 12:35:44;;;;;;;;;;;21.50;99.90;;;;;;5029087;28;20283;-73
2023/01/30 12:38:17;;;;;;;;;;;21.50;99.90;;;;;;5028733;28;19916;-72
2023/01/30 12:40:55;;;;;;;;;;;21.50;99.90;;;;;;5029360;28;20031;-72
2023/01/30 12:43:34;;;;;;;;;;;21.50;99.90;;;;;;5029094;28;19921;-72
2023/01/30 12:46:00;;;;;;;;;;;21.50;99.90;;;;;;5030688;28;19912;-73
2023/01/30 12:48:48;;;;;;;;;;;21.40;99.90;;;;;;5030020;28;19913;-73
2023/01/30 12:51:32;;;;;;;;;;;21.40;99.90;;;;;;5029319;28;19913;-73
2023/01/30 12:54:04;;;;;;;;;;;21.40;99.90;;;;;;5030422;28;19956;-74
2023/01/30 12:56:34;;;;;;;;;;;21.40;99.90;;;;;;5029456;28;19938;-73
2023/01/30 12:59:19;;;;;;;;;;;21.40;99.90;;;;;;5031122;28;19916;-75
2023/01/30 13:01:46;;;;;;;;;;;21.30;99.90;;;;;;5031296;28;19920;-74
2023/01/30 13:04:25;;;;;;;;;;;21.40;99.90;;;;;;5030855;28;19923;-76
2023/01/30 13:07:08;;;;;;;;;;;21.40;99.90;;;;;;5030033;28;20063;-75
2023/01/30 13:09:44;;;;;;;;;;;21.40;99.90;;;;;;5031307;28;19969;-73
2023/01/30 13:12:11;;;;;;;;;;;21.30;99.90;;;;;;5039258;28;19913;-74
2023/01/30 13:14:37;;;;;;;;;;;21.30;99.90;;;;;;5029626;28;20290;-73
2023/01/30 13:17:22;;;;;;;;;;;21.30;99.90;;;;;;5030633;28;20000;-73
2023/01/30 13:19:58;;;;;;;;;;;21.30;99.90;;;;;;5030467;28;19916;-72
2023/01/30 13:22:33;;;;;;;;;;;21.30;99.90;;;;;;5029215;28;19934;-72
2023/01/30 13:25:07;;;;;;;;;;;21.30;99.90;;;;;;5033863;28;19956;-73
2023/01/30 13:27:36;;;;;;;;;;;21.30;99.90;;;;;;5034219;28;20020;-72
2023/01/30 13:30:05;;;;;;;;;;;21.30;99.90;;;;;;5034204;28;19909;-72
2023/01/30 13:32:34;;;;;;;;;;;21.30;99.90;;;;;;5034133;28;19917;-72
2023/01/30 13:35:03;;;;;;;;;;;21.30;99.90;;;;;;5033381;28;19920;-73
2023/01/30 13:37:31;;;;;;;;;;;21.20;99.90;;;;;;5032724;28;19951;-72
2023/01/30 13:40:13;;;;;;;;;;;21.20;99.90;;;;;;5034245;28;19916;-73
2023/01/30 13:42:39;;;;;;;;;;;21.30;99.90;;;;;;5033751;28;20021;-73
2023/01/30 13:45:08;;;;;;;;;;;21.20;99.90;;;;;;5034163;28;19908;-74
2023/01/30 13:47:50;;;;;;;;;;;21.10;99.90;;;;;;5033653;28;20011;-72
2023/01/30 13:50:23;;;;;;;;;;;21.10;99.90;;;;;;5035019;28;19970;-73
2023/01/30 13:52:54;;;;;;;;;;;21.10;99.90;;;;;;5034281;28;20480;-72
2023/01/30 13:55:23;;;;;;;;;;;21.10;99.90;;;;;;5033289;28;19916;-72
2023/01/30 13:57:55;;;;;;;;;;;21.10;99.90;;;;;;5034564;28;19913;-71
2023/01/30 14:00:32;;;;;;;;;;;21.00;99.90;;;;;;5034430;28;20410;-73
2023/01/30 14:03:08;;;;;;;;;;;21.00;99.90;;;;;;5032940;28;19917;-72
2023/01/30 14:05:53;;;;;;;;;;;21.00;99.90;;;;;;5033005;28;19920;-73
2023/01/30 14:08:40;;;;;;;;;;;21.00;99.90;;;;;;5032756;28;20524;-73
2023/01/30 14:11:27;;;;;;;;;;;20.90;99.90;;;;;;5036354;28;20709;-73
2023/01/30 14:13:57;;;;;;;;;;;21.00;99.90;;;;;;5041551;28;19913;-72
2023/01/30 14:16:24;;;;;;;;;;;21.00;99.90;;;;;;5034044;28;19935;-71
2023/01/30 14:18:50;;;;;;;;;;;20.90;99.90;;;;;;5032467;28;19962;-71
2023/01/30 14:21:23;;;;;;;;;;;20.90;99.90;;;;;;5031786;28;19916;-72
2023/01/30 14:23:54;;;;;;;;;;;20.90;99.90;;;;;;5033957;28;19927;-71
2023/01/30 14:26:39;;;;;;;;;;;20.90;99.90;;;;;;5031882;28;19974;-72
2023/01/30 14:29:07;;;;;;;;;;;20.80;99.90;;;;;;5033399;28;19908;-73
2023/01/30 14:31:53;;;;;;;;;;;20.80;99.90;;;;;;5033023;28;19917;-72
2023/01/30 14:34:38;;;;;;;;;;;20.80;99.90;;;;;;5032149;28;19923;-72
2023/01/30 14:37:25;;;;;;;;;;;20.80;99.90;;;;;;5031735;28;19927;-71
2023/01/30 14:39:52;;;;;;;;;;;20.90;99.90;;;;;;5032069;28;22270;-72